sensor_id;sensor_type;location;lat;lon;timestamp;pressure;altitude;pressure_sealevel;temperature;humidity
61109;BME280;46995;55.740;37.402;2023-11-19T00:02:19;100424.41;;;-6.73;74.96
61109;BME280;46995;55.740;37.402;2023-11-19T00:04:44;100412.44;;;-6.78;75.03
61109;BME280;46995;55.740;37.402;2023-11-19T00:07:10;100422.72;;;-6.81;75.17
61109;BME280;46995;55.740;37.402;2023-11-19T00:09:37;100424.44;;;-6.83;75.28
61109;BME280;46995;55.740;37.402;2023-11-19T00:12:06;100422.72;;;-6.85;74.83
61109;BME280;46995;55.740;37.402;2023-11-19T00:14:32;100427.88;;;-6.88;75.33
61109;BME280;46995;55.740;37.402;2023-11-19T00:16:57;100421.03;;;-6.92;75.06
61109;BME280;46995;55.740;37.402;2023-11-19T00:19:23;100416.75;;;-6.97;75.30
61109;BME280;46995;55.740;37.402;2023-11-19T00:21:49;100415.91;;;-7.04;75.11
61109;BME280;46995;55.740;37.402;2023-11-19T00:24:14;100421.91;;;-7.09;75.50
61109;BME280;46995;55.740;37.402;2023-11-19T00:26:42;100417.63;;;-7.12;75.50
61109;BME280;46995;55.740;37.402;2023-11-19T00:29:07;100422.78;;;-7.12;75.72
61109;BME280;46995;55.740;37.402;2023-11-19T00:31:33;100421.91;;;-7.12;75.22
61109;BME280;46995;55.740;37.402;2023-11-19T00:33:59;100421.03;;;-7.16;75.27
61109;BME280;46995;55.740;37.402;2023-11-19T00:36:24;100411.63;;;-7.20;75.41
61109;BME280;46995;55.740;37.402;2023-11-19T00:38:51;100410.78;;;-7.23;75.26
61109;BME280;46995;55.740;37.402;2023-11-19T00:41:18;100400.53;;;-7.25;75.82
61109;BME280;46995;55.740;37.402;2023-11-19T00:43:43;100407.34;;;-7.25;75.43
61109;BME280;46995;55.740;37.402;2023-11-19T00:46:11;100406.50;;;-7.26;75.48
61109;BME280;46995;55.740;37.402;2023-11-19T00:48:37;100403.94;;;-7.29;75.58
61109;BME280;46995;55.740;37.402;2023-11-19T00:51:02;100400.53;;;-7.34;75.50
61109;BME280;46995;55.740;37.402;2023-11-19T00:53:29;100400.50;;;-7.37;75.13
61109;BME280;46995;55.740;37.402;2023-11-19T00:56:05;100396.25;;;-7.41;75.39
61109;BME280;46995;55.740;37.402;2023-11-19T00:58:43;100404.78;;;-7.42;75.97
61109;BME280;46995;55.740;37.402;2023-11-19T01:01:08;100397.97;;;-7.43;75.68
61109;BME280;46995;55.740;37.402;2023-11-19T01:03:34;100391.97;;;-7.45;75.42
61109;BME280;46995;55.740;37.402;2023-11-19T01:05:59;100390.28;;;-7.49;75.56
61109;BME280;46995;55.740;37.402;2023-11-19T01:11:21;100380.84;;;-7.56;75.27
61109;BME280;46995;55.740;37.402;2023-11-19T01:13:47;100378.28;;;-7.56;75.52
61109;BME280;46995;55.740;37.402;2023-11-19T01:16:13;100375.75;;;-7.59;75.58
61109;BME280;46995;55.740;37.402;2023-11-19T01:18:38;100383.44;;;-7.59;75.56
61109;BME280;46995;55.740;37.402;2023-11-19T01:21:04;100378.31;;;-7.59;75.39
61109;BME280;46995;55.740;37.402;2023-11-19T01:23:30;100376.59;;;-7.60;75.89
61109;BME280;46995;55.740;37.402;2023-11-19T01:25:56;100372.31;;;-7.60;75.43
61109;BME280;46995;55.740;37.402;2023-11-19T01:28:21;100367.19;;;-7.61;75.59
61109;BME280;46995;55.740;37.402;2023-11-19T01:34:00;100365.44;;;-7.64;75.97
61109;BME280;46995;55.740;37.402;2023-11-19T01:36:42;100372.31;;;-7.66;75.86
61109;BME280;46995;55.740;37.402;2023-11-19T01:39:31;100370.59;;;-7.70;75.88
61109;BME280;46995;55.740;37.402;2023-11-19T01:42:09;100371.47;;;-7.69;76.17
61109;BME280;46995;55.740;37.402;2023-11-19T01:44:37;100363.78;;;-7.69;75.72
61109;BME280;46995;55.740;37.402;2023-11-19T01:47:09;100357.75;;;-7.68;75.67
61109;BME280;46995;55.740;37.402;2023-11-19T01:49:36;100362.03;;;-7.69;75.58
61109;BME280;46995;55.740;37.402;2023-11-19T01:55:26;100352.66;;;-7.75;75.60
61109;BME280;46995;55.740;37.402;2023-11-19T01:57:53;100354.34;;;-7.74;75.89
61109;BME280;46995;55.740;37.402;2023-11-19T02:00:21;100348.38;;;-7.76;75.53
61109;BME280;46995;55.740;37.402;2023-11-19T02:02:47;100350.94;;;-7.77;75.89
61109;BME280;46995;55.740;37.402;2023-11-19T02:05:13;100349.22;;;-7.77;75.58
61109;BME280;46995;55.740;37.402;2023-11-19T02:07:39;100349.22;;;-7.77;75.93
61109;BME280;46995;55.740;37.402;2023-11-19T02:10:05;100359.50;;;-7.75;75.93
61109;BME280;46995;55.740;37.402;2023-11-19T02:12:31;100356.06;;;-7.76;75.82
61109;BME280;46995;55.740;37.402;2023-11-19T02:15:01;100359.47;;;-7.77;75.65
61109;BME280;46995;55.740;37.402;2023-11-19T02:17:31;100354.34;;;-7.77;75.55
61109;BME280;46995;55.740;37.402;2023-11-19T02:19:57;100360.34;;;-7.75;75.73
61109;BME280;46995;55.740;37.402;2023-11-19T02:22:43;100358.63;;;-7.76;75.84
61109;BME280;46995;55.740;37.402;2023-11-19T02:25:29;100362.03;;;-7.74;76.10
61109;BME280;46995;55.740;37.402;2023-11-19T02:27:59;100361.19;;;-7.73;75.97
61109;BME280;46995;55.740;37.402;2023-11-19T02:30:26;100354.34;;;-7.74;75.93
61109;BME280;46995;55.740;37.402;2023-11-19T02:32:55;100348.38;;;-7.71;75.72
61109;BME280;46995;55.740;37.402;2023-11-19T02:35:24;100346.66;;;-7.72;75.61
61109;BME280;46995;55.740;37.402;2023-11-19T02:37:51;100343.25;;;-7.73;76.00
61109;BME280;46995;55.740;37.402;2023-11-19T02:40:17;100347.53;;;-7.72;75.82
61109;BME280;46995;55.740;37.402;2023-11-19T02:42:43;100340.69;;;-7.71;75.36
61109;BME280;46995;55.740;37.402;2023-11-19T02:45:09;100344.94;;;-7.72;75.66
61109;BME280;46995;55.740;37.402;2023-11-19T02:47:40;100344.09;;;-7.72;75.72
61109;BME280;46995;55.740;37.402;2023-11-19T02:50:06;100340.69;;;-7.69;75.96
61109;BME280;46995;55.740;37.402;2023-11-19T02:52:39;100345.78;;;-7.63;75.33
61109;BME280;46995;55.740;37.402;2023-11-19T02:55:05;100349.22;;;-7.55;74.77
61109;BME280;46995;55.740;37.402;2023-11-19T02:57:34;100343.25;;;-7.44;75.23
61109;BME280;46995;55.740;37.402;2023-11-19T03:00:05;100339.78;;;-7.26;75.17
61109;BME280;46995;55.740;37.402;2023-11-19T03:02:40;100335.50;;;-7.09;74.88
61109;BME280;46995;55.740;37.402;2023-11-19T03:05:24;100325.19;;;-6.94;74.24
61109;BME280;46995;55.740;37.402;2023-11-19T03:07:50;100321.75;;;-6.80;74.48
61109;BME280;46995;55.740;37.402;2023-11-19T03:10:16;100323.41;;;-6.70;74.40
61109;BME280;46995;55.740;37.402;2023-11-19T03:12:43;100331.06;;;-6.63;74.26
61109;BME280;46995;55.740;37.402;2023-11-19T03:15:09;100324.16;;;-6.53;74.55
61109;BME280;46995;55.740;37.402;2023-11-19T03:17:41;100319.84;;;-6.42;74.46
61109;BME280;46995;55.740;37.402;2023-11-19T03:20:07;100321.50;;;-6.32;74.26
61109;BME280;46995;55.740;37.402;2023-11-19T03:22:39;100317.16;;;-6.22;73.85
61109;BME280;46995;55.740;37.402;2023-11-19T03:25:06;100329.09;;;-6.09;74.65
61109;BME280;46995;55.740;37.402;2023-11-19T03:27:37;100321.28;;;-5.95;74.35
61109;BME280;46995;55.740;37.402;2023-11-19T03:30:04;100327.13;;;-5.80;74.34
61109;BME280;46995;55.740;37.402;2023-11-19T03:32:33;100314.22;;;-5.72;74.69
61109;BME280;46995;55.740;37.402;2023-11-19T03:35:03;100321.84;;;-5.63;74.09
61109;BME280;46995;55.740;37.402;2023-11-19T03:37:44;100311.47;;;-5.52;74.58
61109;BME280;46995;55.740;37.402;2023-11-19T03:47:45;100301.91;;;-5.37;74.80
61109;BME280;46995;55.740;37.402;2023-11-19T03:50:19;100288.13;;;-5.33;74.31
61109;BME280;46995;55.740;37.402;2023-11-19T03:52:49;100282.97;;;-5.30;74.37
61109;BME280;46995;55.740;37.402;2023-11-19T03:55:15;100280.34;;;-5.27;74.15
61109;BME280;46995;55.740;37.402;2023-11-19T03:57:40;100279.50;;;-5.26;74.53
61109;BME280;46995;55.740;37.402;2023-11-19T04:00:06;100288.06;;;-5.24;74.58
61109;BME280;46995;55.740;37.402;2023-11-19T04:02:38;100289.78;;;-5.26;74.85
61109;BME280;46995;55.740;37.402;2023-11-19T04:05:04;100282.91;;;-5.24;74.46
61109;BME280;46995;55.740;37.402;2023-11-19T04:07:32;100280.25;;;-5.18;74.29
61109;BME280;46995;55.740;37.402;2023-11-19T04:09:58;100269.94;;;-5.15;74.30
61109;BME280;46995;55.740;37.402;2023-11-19T04:12:24;100266.50;;;-5.14;74.52
61109;BME280;46995;55.740;37.402;2023-11-19T04:14:49;100257.00;;;-5.12;75.04
61109;BME280;46995;55.740;37.402;2023-11-19T04:17:17;100259.59;;;-5.12;75.03
61109;BME280;46995;55.740;37.402;2023-11-19T04:19:43;100253.63;;;-5.14;74.26
61109;BME280;46995;55.740;37.402;2023-11-19T04:22:08;100256.19;;;-5.14;74.41
61109;BME280;46995;55.740;37.402;2023-11-19T04:24:44;100250.19;;;-5.16;74.69
61109;BME280;46995;55.740;37.402;2023-11-19T04:27:11;100258.84;;;-5.20;74.16
61109;BME280;46995;55.740;37.402;2023-11-19T04:29:39;100251.09;;;-5.20;74.46
61109;BME280;46995;55.740;37.402;2023-11-19T04:32:04;100244.19;;;-5.15;75.03
61109;BME280;46995;55.740;37.402;2023-11-19T04:34:30;100242.41;;;-5.08;75.09
61109;BME280;46995;55.740;37.402;2023-11-19T04:36:56;100257.81;;;-5.06;74.75
61109;BME280;46995;55.740;37.402;2023-11-19T04:39:21;100260.44;;;-5.09;74.41
61109;BME280;46995;55.740;37.402;2023-11-19T04:41:51;100257.00;;;-5.12;74.85
61109;BME280;46995;55.740;37.402;2023-11-19T04:44:20;100261.34;;;-5.14;74.17
61109;BME280;46995;55.740;37.402;2023-11-19T04:46:46;100263.91;;;-5.14;74.63
61109;BME280;46995;55.740;37.402;2023-11-19T04:49:20;100266.38;;;-5.06;74.63
61109;BME280;46995;55.740;37.402;2023-11-19T04:51:56;100260.38;;;-5.03;73.81
61109;BME280;46995;55.740;37.402;2023-11-19T04:54:33;100270.63;;;-5.00;74.47
61109;BME280;46995;55.740;37.402;2023-11-19T04:56:58;100277.44;;;-4.96;73.97
61109;BME280;46995;55.740;37.402;2023-11-19T05:03:17;100267.00;;;-4.84;73.65
61109;BME280;46995;55.740;37.402;2023-11-19T05:05:43;100268.72;;;-4.83;73.82
61109;BME280;46995;55.740;37.402;2023-11-19T05:11:43;100270.28;;;-4.72;74.24
61109;BME280;46995;55.740;37.402;2023-11-19T05:14:09;100271.94;;;-4.66;74.15
61109;BME280;46995;55.740;37.402;2023-11-19T05:16:34;100275.31;;;-4.64;73.59
61109;BME280;46995;55.740;37.402;2023-11-19T05:19:00;100271.03;;;-4.62;73.65
61109;BME280;46995;55.740;37.402;2023-11-19T05:21:26;100273.59;;;-4.62;73.15
61109;BME280;46995;55.740;37.402;2023-11-19T05:23:51;100271.94;;;-4.66;74.04
61109;BME280;46995;55.740;37.402;2023-11-19T05:26:21;100271.94;;;-4.66;73.74
61109;BME280;46995;55.740;37.402;2023-11-19T05:28:46;100270.16;;;-4.64;74.06
61109;BME280;46995;55.740;37.402;2023-11-19T05:31:12;100274.44;;;-4.61;73.67
61109;BME280;46995;55.740;37.402;2023-11-19T05:33:38;100278.69;;;-4.59;74.08
61109;BME280;46995;55.740;37.402;2023-11-19T05:36:18;100280.34;;;-4.55;73.90
61109;BME280;46995;55.740;37.402;2023-11-19T05:38:44;100275.13;;;-4.49;73.25
61109;BME280;46995;55.740;37.402;2023-11-19T05:41:10;100275.97;;;-4.47;73.06
61109;BME280;46995;55.740;37.402;2023-11-19T05:43:36;100268.19;;;-4.44;72.95
61109;BME280;46995;55.740;37.402;2023-11-19T05:46:03;100276.69;;;-4.36;73.17
61109;BME280;46995;55.740;37.402;2023-11-19T05:48:28;100281.69;;;-4.27;73.18
61109;BME280;46995;55.740;37.402;2023-11-19T05:50:54;100279.06;;;-4.23;73.02
61109;BME280;46995;55.740;37.402;2023-11-19T05:53:20;100285.13;;;-4.24;73.40
61109;BME280;46995;55.740;37.402;2023-11-19T05:55:46;100273.94;;;-4.25;72.79
61109;BME280;46995;55.740;37.402;2023-11-19T05:58:20;100274.84;;;-4.28;73.20
61109;BME280;46995;55.740;37.402;2023-11-19T06:00:47;100271.38;;;-4.27;73.20
61109;BME280;46995;55.740;37.402;2023-11-19T06:03:13;100276.53;;;-4.27;73.68
61109;BME280;46995;55.740;37.402;2023-11-19T06:05:44;100273.94;;;-4.25;73.15
61109;BME280;46995;55.740;37.402;2023-11-19T06:08:09;100267.88;;;-4.22;72.82
61109;BME280;46995;55.740;37.402;2023-11-19T06:10:35;100272.13;;;-4.18;73.20
61109;BME280;46995;55.740;37.402;2023-11-19T06:13:01;100266.06;;;-4.14;73.50
61109;BME280;46995;55.740;37.402;2023-11-19T06:15:30;100260.75;;;-4.05;72.79
61109;BME280;46995;55.740;37.402;2023-11-19T06:17:56;100258.94;;;-4.00;72.64
61109;BME280;46995;55.740;37.402;2023-11-19T06:20:23;100258.88;;;-3.94;72.61
61109;BME280;46995;55.740;37.402;2023-11-19T06:22:49;100248.47;;;-3.90;72.53
61109;BME280;46995;55.740;37.402;2023-11-19T06:25:15;100253.50;;;-3.82;72.84
61109;BME280;46995;55.740;37.402;2023-11-19T06:27:41;100270.59;;;-3.75;72.01
61109;BME280;46995;55.740;37.402;2023-11-19T06:33:36;100259.31;;;-3.69;71.91
61109;BME280;46995;55.740;37.402;2023-11-19T06:36:04;100254.13;;;-3.68;71.38
61109;BME280;46995;55.740;37.402;2023-11-19T06:38:35;100251.47;;;-3.63;72.23
61109;BME280;46995;55.740;37.402;2023-11-19T06:41:01;100249.75;;;-3.64;72.18
61109;BME280;46995;55.740;37.402;2023-11-19T06:43:27;100248.91;;;-3.65;71.44
61109;BME280;46995;55.740;37.402;2023-11-19T06:45:53;100248.03;;;-3.64;71.93
61109;BME280;46995;55.740;37.402;2023-11-19T06:48:21;100242.88;;;-3.64;71.63
61109;BME280;46995;55.740;37.402;2023-11-19T06:50:47;100245.44;;;-3.64;71.43
61109;BME280;46995;55.740;37.402;2023-11-19T06:53:13;100243.72;;;-3.63;71.54
61109;BME280;46995;55.740;37.402;2023-11-19T06:56:10;100254.09;;;-3.66;71.58
61109;BME280;46995;55.740;37.402;2023-11-19T07:02:11;100257.50;;;-3.63;71.55
61109;BME280;46995;55.740;37.402;2023-11-19T07:07:47;100256.47;;;-3.56;71.75
61109;BME280;46995;55.740;37.402;2023-11-19T07:10:30;100254.66;;;-3.51;71.04
61109;BME280;46995;55.740;37.402;2023-11-19T07:13:55;100245.09;;;-3.44;70.85
61109;BME280;46995;55.740;37.402;2023-11-19T07:16:37;100242.44;;;-3.39;70.91
61109;BME280;46995;55.740;37.402;2023-11-19T07:19:12;100245.00;;;-3.38;70.12
61109;BME280;46995;55.740;37.402;2023-11-19T07:21:56;100247.63;;;-3.41;69.50
61109;BME280;46995;55.740;37.402;2023-11-19T07:24:52;100246.81;;;-3.43;69.80
61109;BME280;46995;55.740;37.402;2023-11-19T07:27:18;100255.50;;;-3.47;70.14
61109;BME280;46995;55.740;37.402;2023-11-19T07:29:53;100247.75;;;-3.49;69.94
61109;BME280;46995;55.740;37.402;2023-11-19T07:35:18;100246.81;;;-3.43;69.83
61109;BME280;46995;55.740;37.402;2023-11-19T07:37:55;100247.59;;;-3.39;69.53
61109;BME280;46995;55.740;37.402;2023-11-19T07:40:36;100249.28;;;-3.38;68.97
61109;BME280;46995;55.740;37.402;2023-11-19T07:46:01;100241.56;;;-3.38;69.54
61109;BME280;46995;55.740;37.402;2023-11-19T07:48:32;100241.50;;;-3.35;69.14
61109;BME280;46995;55.740;37.402;2023-11-19T07:51:06;100240.50;;;-3.28;69.59
61109;BME280;46995;55.740;37.402;2023-11-19T07:53:52;100249.09;;;-3.26;69.12
61109;BME280;46995;55.740;37.402;2023-11-19T07:56:20;100245.63;;;-3.25;68.97
61109;BME280;46995;55.740;37.402;2023-11-19T07:58:47;100243.84;;;-3.23;69.36
61109;BME280;46995;55.740;37.402;2023-11-19T08:05:16;100235.88;;;-3.11;69.07
61109;BME280;46995;55.740;37.402;2023-11-19T08:07:41;100241.88;;;-3.09;69.41
61109;BME280;46995;55.740;37.402;2023-11-19T08:10:07;100234.06;;;-3.06;69.29
61109;BME280;46995;55.740;37.402;2023-11-19T08:12:42;100228.88;;;-3.05;68.29
61109;BME280;46995;55.740;37.402;2023-11-19T08:15:18;100226.28;;;-3.05;68.18
61109;BME280;46995;55.740;37.402;2023-11-19T08:17:43;100226.22;;;-3.03;68.21
61109;BME280;46995;55.740;37.402;2023-11-19T08:20:09;100227.94;;;-3.02;68.40
61109;BME280;46995;55.740;37.402;2023-11-19T08:22:38;100227.09;;;-3.03;68.47
61109;BME280;46995;55.740;37.402;2023-11-19T08:25:04;100219.38;;;-3.04;68.53
61109;BME280;46995;55.740;37.402;2023-11-19T08:27:33;100215.06;;;-3.04;67.95
61109;BME280;46995;55.740;37.402;2023-11-19T08:29:59;100220.25;;;-3.04;68.11
61109;BME280;46995;55.740;37.402;2023-11-19T08:32:25;100213.38;;;-3.05;67.74
61109;BME280;46995;55.740;37.402;2023-11-19T08:34:51;100212.50;;;-3.05;67.65
61109;BME280;46995;55.740;37.402;2023-11-19T08:37:17;100203.06;;;-3.08;67.11
61109;BME280;46995;55.740;37.402;2023-11-19T08:40:00;100210.91;;;-3.12;68.01
61109;BME280;46995;55.740;37.402;2023-11-19T08:43:12;100209.16;;;-3.10;68.28
61109;BME280;46995;55.740;37.402;2023-11-19T08:45:50;100207.38;;;-3.08;67.99
61109;BME280;46995;55.740;37.402;2023-11-19T08:48:18;100213.47;;;-3.09;67.90
61109;BME280;46995;55.740;37.402;2023-11-19T08:51:12;100213.47;;;-3.09;68.34
61109;BME280;46995;55.740;37.402;2023-11-19T08:53:43;100218.63;;;-3.09;67.20
61109;BME280;46995;55.740;37.402;2023-11-19T08:56:09;100225.53;;;-3.11;66.34
61109;BME280;46995;55.740;37.402;2023-11-19T08:58:35;100224.78;;;-3.16;66.01
61109;BME280;46995;55.740;37.402;2023-11-19T09:01:00;100215.34;;;-3.19;67.08
61109;BME280;46995;55.740;37.402;2023-11-19T09:03:30;100219.69;;;-3.19;66.31
61109;BME280;46995;55.740;37.402;2023-11-19T09:05:56;100222.28;;;-3.19;67.06
61109;BME280;46995;55.740;37.402;2023-11-19T09:08:36;100219.72;;;-3.22;66.98
61109;BME280;46995;55.740;37.402;2023-11-19T09:13:59;100212.16;;;-3.31;66.48
61109;BME280;46995;55.740;37.402;2023-11-19T09:16:24;100212.16;;;-3.31;66.51
61109;BME280;46995;55.740;37.402;2023-11-19T09:18:51;100202.69;;;-3.31;66.50
61109;BME280;46995;55.740;37.402;2023-11-19T09:21:21;100200.97;;;-3.30;66.57
61109;BME280;46995;55.740;37.402;2023-11-19T09:23:57;100196.44;;;-3.19;67.82
61109;BME280;46995;55.740;37.402;2023-11-19T09:29:16;100196.19;;;-3.09;67.44
61109;BME280;46995;55.740;37.402;2023-11-19T09:31:43;100186.72;;;-3.08;67.45
61109;BME280;46995;55.740;37.402;2023-11-19T09:34:20;100178.94;;;-3.05;68.14
61109;BME280;46995;55.740;37.402;2023-11-19T09:36:57;100174.50;;;-3.00;68.16
61109;BME280;46995;55.740;37.402;2023-11-19T09:39:28;100177.84;;;-2.95;66.80
61109;BME280;46995;55.740;37.402;2023-11-19T09:41:53;100173.41;;;-2.88;67.47
61109;BME280;46995;55.740;37.402;2023-11-19T09:44:19;100167.31;;;-2.86;67.12
61109;BME280;46995;55.740;37.402;2023-11-19T09:46:45;100170.53;;;-2.75;67.31
61109;BME280;46995;55.740;37.402;2023-11-19T09:49:11;100153.25;;;-2.73;67.19
61109;BME280;46995;55.740;37.402;2023-11-19T09:51:38;100148.13;;;-2.76;67.28
61109;BME280;46995;55.740;37.402;2023-11-19T09:54:04;100148.31;;;-2.83;67.65
61109;BME280;46995;55.740;37.402;2023-11-19T09:56:30;100144.88;;;-2.84;67.35
61109;BME280;46995;55.740;37.402;2023-11-19T09:58:58;100143.94;;;-2.81;67.59
61109;BME280;46995;55.740;37.402;2023-11-19T10:01:27;100136.16;;;-2.80;66.72
61109;BME280;46995;55.740;37.402;2023-11-19T10:03:53;100144.75;;;-2.78;66.75
61109;BME280;46995;55.740;37.402;2023-11-19T10:06:20;100137.88;;;-2.79;66.62
61109;BME280;46995;55.740;37.402;2023-11-19T10:08:47;100135.28;;;-2.79;66.24
61109;BME280;46995;55.740;37.402;2023-11-19T10:11:12;100136.16;;;-2.80;66.43
61109;BME280;46995;55.740;37.402;2023-11-19T10:13:38;100130.25;;;-2.85;66.24
61109;BME280;46995;55.740;37.402;2023-11-19T10:16:08;100126.06;;;-2.90;65.50
61109;BME280;46995;55.740;37.402;2023-11-19T10:18:34;100127.06;;;-2.96;66.58
61109;BME280;46995;55.740;37.402;2023-11-19T10:21:04;100127.06;;;-2.96;66.39
61109;BME280;46995;55.740;37.402;2023-11-19T10:23:31;100126.28;;;-3.00;66.00
61109;BME280;46995;55.740;37.402;2023-11-19T10:26:03;100128.00;;;-3.00;66.49
61109;BME280;46995;55.740;37.402;2023-11-19T10:28:41;100124.59;;;-3.02;65.10
61109;BME280;46995;55.740;37.402;2023-11-19T10:31:09;100125.56;;;-3.06;64.84
61109;BME280;46995;55.740;37.402;2023-11-19T10:33:35;100129.88;;;-3.08;63.99
61109;BME280;46995;55.740;37.402;2023-11-19T10:36:01;100129.03;;;-3.09;64.30
61109;BME280;46995;55.740;37.402;2023-11-19T10:38:26;100129.97;;;-3.11;64.93
61109;BME280;46995;55.740;37.402;2023-11-19T10:40:52;100123.13;;;-3.14;64.04
61109;BME280;46995;55.740;37.402;2023-11-19T10:43:18;100114.56;;;-3.16;64.02
61109;BME280;46995;55.740;37.402;2023-11-19T10:45:44;100128.47;;;-3.21;63.19
61109;BME280;46995;55.740;37.402;2023-11-19T10:48:10;100130.22;;;-3.23;63.47
61109;BME280;46995;55.740;37.402;2023-11-19T10:50:39;100136.34;;;-3.27;64.15
61109;BME280;46995;55.740;37.402;2023-11-19T10:53:05;100139.00;;;-3.30;63.72
61109;BME280;46995;55.740;37.402;2023-11-19T10:55:32;100147.63;;;-3.31;63.57
61109;BME280;46995;55.740;37.402;2023-11-19T10:57:59;100140.75;;;-3.32;64.87
61109;BME280;46995;55.740;37.402;2023-11-19T11:00:25;100135.66;;;-3.35;64.97
61109;BME280;46995;55.740;37.402;2023-11-19T11:02:53;100132.25;;;-3.37;64.79
61109;BME280;46995;55.740;37.402;2023-11-19T11:05:21;100127.06;;;-3.36;65.18
61109;BME280;46995;55.740;37.402;2023-11-19T11:07:47;100123.63;;;-3.36;64.09
61109;BME280;46995;55.740;37.402;2023-11-19T11:10:14;100121.06;;;-3.38;63.98
61109;BME280;46995;55.740;37.402;2023-11-19T11:12:41;100127.94;;;-3.37;63.36
61109;BME280;46995;55.740;37.402;2023-11-19T11:15:09;100120.19;;;-3.37;62.45
61109;BME280;46995;55.740;37.402;2023-11-19T11:17:37;100121.84;;;-3.34;62.25
61109;BME280;46995;55.740;37.402;2023-11-19T11:20:04;100115.78;;;-3.32;62.28
61109;BME280;46995;55.740;37.402;2023-11-19T11:22:30;100113.09;;;-3.27;61.60
61109;BME280;46995;55.740;37.402;2023-11-19T11:25:51;100114.72;;;-3.23;62.56
61109;BME280;46995;55.740;37.402;2023-11-19T11:27:53;100107.81;;;-3.21;63.04
61109;BME280;46995;55.740;37.402;2023-11-19T11:30:39;100107.94;;;-3.27;63.18
61109;BME280;46995;55.740;37.402;2023-11-19T11:38:21;100100.63;;;-3.49;63.36
61109;BME280;46995;55.740;37.402;2023-11-19T11:43:51;100101.75;;;-3.62;62.47
61109;BME280;46995;55.740;37.402;2023-11-19T11:49:04;100106.16;;;-3.67;63.39
61109;BME280;46995;55.740;37.402;2023-11-19T11:54:26;100099.88;;;-3.55;63.12
61109;BME280;46995;55.740;37.402;2023-11-19T11:57:09;100099.75;;;-3.48;63.56
61109;BME280;46995;55.740;37.402;2023-11-19T12:02:11;100094.34;;;-3.35;63.39
61109;BME280;46995;55.740;37.402;2023-11-19T12:04:39;100092.56;;;-3.33;62.99
61109;BME280;46995;55.740;37.402;2023-11-19T12:07:05;100094.34;;;-3.35;62.81
61109;BME280;46995;55.740;37.402;2023-11-19T12:09:31;100101.25;;;-3.37;62.88
61109;BME280;46995;55.740;37.402;2023-11-19T12:15:03;100101.50;;;-3.50;63.08
61109;BME280;46995;55.740;37.402;2023-11-19T12:20:01;100099.00;;;-3.53;63.85
61109;BME280;46995;55.740;37.402;2023-11-19T12:22:28;100093.91;;;-3.57;64.18
61109;BME280;46995;55.740;37.402;2023-11-19T12:24:56;100094.88;;;-3.63;64.46
61109;BME280;46995;55.740;37.402;2023-11-19T12:28:04;100090.72;;;-3.70;63.76
61109;BME280;46995;55.740;37.402;2023-11-19T12:30:31;100088.22;;;-3.74;63.39
61109;BME280;46995;55.740;37.402;2023-11-19T12:32:56;100083.16;;;-3.77;64.20
61109;BME280;46995;55.740;37.402;2023-11-19T12:35:22;100090.06;;;-3.81;64.34
61109;BME280;46995;55.740;37.402;2023-11-19T12:37:51;100085.78;;;-3.82;63.98
61109;BME280;46995;55.740;37.402;2023-11-19T12:40:18;100078.03;;;-3.80;64.78
61109;BME280;46995;55.740;37.402;2023-11-19T12:42:45;100082.25;;;-3.76;64.51
61109;BME280;46995;55.740;37.402;2023-11-19T12:45:11;100075.44;;;-3.79;63.85
61109;BME280;46995;55.740;37.402;2023-11-19T12:47:38;100085.78;;;-3.82;63.77
61109;BME280;46995;55.740;37.402;2023-11-19T12:50:03;100074.69;;;-3.86;63.88
61109;BME280;46995;55.740;37.402;2023-11-19T12:52:29;100074.78;;;-3.90;64.15
61109;BME280;46995;55.740;37.402;2023-11-19T12:54:55;100075.59;;;-3.88;64.00
61109;BME280;46995;55.740;37.402;2023-11-19T12:57:21;100071.22;;;-3.83;64.86
61109;BME280;46995;55.740;37.402;2023-11-19T13:00:00;100070.31;;;-3.82;64.50
61109;BME280;46995;55.740;37.402;2023-11-19T13:05:31;100063.59;;;-3.89;64.42
61109;BME280;46995;55.740;37.402;2023-11-19T13:08:07;100061.00;;;-3.89;64.13
61109;BME280;46995;55.740;37.402;2023-11-19T13:10:54;100058.53;;;-3.95;64.07
61109;BME280;46995;55.740;37.402;2023-11-19T13:13:19;100056.03;;;-3.98;64.12
61109;BME280;46995;55.740;37.402;2023-11-19T13:15:48;100048.34;;;-4.03;63.98
61109;BME280;46995;55.740;37.402;2023-11-19T13:18:15;100048.41;;;-4.06;64.06
61109;BME280;46995;55.740;37.402;2023-11-19T13:20:44;100046.72;;;-4.07;63.77
61109;BME280;46995;55.740;37.402;2023-11-19T13:23:28;100039.84;;;-4.08;63.81
61109;BME280;46995;55.740;37.402;2023-11-19T13:25:53;100034.75;;;-4.09;63.76
61109;BME280;46995;55.740;37.402;2023-11-19T13:28:20;100038.19;;;-4.10;63.59
61109;BME280;46995;55.740;37.402;2023-11-19T13:30:45;100034.03;;;-4.17;63.36
61109;BME280;46995;55.740;37.402;2023-11-19T13:33:11;100025.53;;;-4.22;63.93
61109;BME280;46995;55.740;37.402;2023-11-19T13:35:38;100024.75;;;-4.26;64.41
61109;BME280;46995;55.740;37.402;2023-11-19T13:38:08;100027.41;;;-4.31;64.81
61109;BME280;46995;55.740;37.402;2023-11-19T13:40:34;100030.78;;;-4.29;64.87
61109;BME280;46995;55.740;37.402;2023-11-19T13:43:01;100023.00;;;-4.25;64.68
61109;BME280;46995;55.740;37.402;2023-11-19T13:45:30;100023.81;;;-4.23;65.06
61109;BME280;46995;55.740;37.402;2023-11-19T13:48:03;100025.47;;;-4.19;64.87
61109;BME280;46995;55.740;37.402;2023-11-19T13:50:31;100025.41;;;-4.16;64.65
61109;BME280;46995;55.740;37.402;2023-11-19T13:52:59;100035.66;;;-4.13;64.08
61109;BME280;46995;55.740;37.402;2023-11-19T13:55:26;100039.13;;;-4.14;64.38
61109;BME280;46995;55.740;37.402;2023-11-19T13:57:52;100040.88;;;-4.16;64.42
61109;BME280;46995;55.740;37.402;2023-11-19T14:00:17;100035.72;;;-4.15;64.54
61109;BME280;46995;55.740;37.402;2023-11-19T14:02:48;100030.50;;;-4.13;63.82
61109;BME280;46995;55.740;37.402;2023-11-19T14:05:14;100034.78;;;-4.12;63.67
61109;BME280;46995;55.740;37.402;2023-11-19T14:07:41;99978.81;;;-4.52;63.69